Terminal Aerodrome Forecast
Issued by NWS Lake Charles, LA

Home | Current Version | Previous Version | Text Only | Print | Product List | Glossary On
Versions: 1 2 3 4 5 6 7 8 9 10 11 12 13 14 15 16
299
FTUS44 KLCH 021724
TAFBPT
TAF
KBPT 021724Z 0218/0318 09014KT P6SM BKN080
     FM022300 08015G20KT P6SM VCSH SCT035 OVC060
     FM030200 08018G26KT P6SM -RA BKN025 OVC050
     FM031200 09018G26KT 4SM -RA BR OVC015=

USA.gov is the U.S. government's official web portal to all federal, state and local government web resources and services.